createdAt,value
2022-11-29T00:01:40.613Z,39.58
2022-11-29T00:04:07.856Z,36.92
2022-11-29T00:06:36.186Z,38.47
2022-11-29T00:09:11.804Z,39.50
2022-11-29T00:17:01.877Z,36.53
2022-11-29T00:19:31.346Z,41.63
2022-11-29T00:21:59.723Z,40.42
2022-11-29T00:24:28.712Z,38.55
2022-11-29T00:26:55.954Z,39.63
2022-11-29T00:29:23.176Z,36.40
2022-11-29T00:31:50.342Z,41.50
2022-11-29T00:34:17.471Z,40.10
2022-11-29T00:36:44.644Z,43.70
2022-11-29T00:39:12.467Z,39.95
2022-11-29T00:41:40.353Z,41.03
2022-11-29T00:44:08.496Z,40.58
2022-11-29T00:46:35.972Z,38.83
2022-11-29T00:49:03.713Z,38.95
2022-11-29T00:51:30.940Z,37.90
2022-11-29T00:53:58.184Z,41.88
2022-11-29T00:56:25.659Z,38.92
2022-11-29T00:58:52.979Z,37.38
2022-11-29T01:01:20.342Z,35.38
2022-11-29T01:03:48.004Z,41.45
2022-11-29T01:06:17.839Z,43.13
2022-11-29T01:08:45.850Z,40.92
2022-11-29T01:11:25.778Z,41.25
2022-11-29T01:14:00.239Z,38.58
2022-11-29T01:16:30.560Z,43.13
2022-11-29T01:18:57.946Z,42.85
2022-11-29T01:21:25.426Z,46.38
2022-11-29T01:23:54.397Z,41.05
2022-11-29T01:26:26.880Z,44.95
2022-11-29T01:28:57.285Z,37.85
2022-11-29T01:31:33.270Z,39.00
2022-11-29T01:34:04.490Z,40.92
2022-11-29T01:36:32.351Z,46.95
2022-11-29T01:39:05.658Z,43.40
2022-11-29T01:41:37.072Z,45.40
2022-11-29T01:44:28.427Z,44.35
2022-11-29T01:46:57.344Z,45.22
2022-11-29T01:49:48.686Z,43.28
2022-11-29T01:52:28.646Z,41.97
2022-11-29T01:55:04.504Z,42.42
2022-11-29T01:57:34.917Z,45.63
2022-11-29T02:00:11.424Z,41.08
2022-11-29T02:03:14.845Z,42.50
2022-11-29T02:05:53.369Z,47.03
2022-11-29T02:08:37.686Z,50.58
2022-11-29T02:11:56.440Z,48.30
2022-11-29T02:14:51.397Z,46.35
2022-11-29T02:18:06.648Z,51.28
2022-11-29T02:21:31.621Z,48.10
2022-11-29T02:24:48.105Z,46.78
2022-11-29T02:27:53.693Z,46.15
2022-11-29T02:30:55.848Z,53.47
2022-11-29T02:34:44.084Z,54.08
2022-11-29T02:38:17.252Z,56.63
2022-11-29T02:41:36.971Z,59.83
2022-11-29T02:44:41.741Z,61.08
2022-11-29T02:47:24.249Z,52.95
2022-11-29T02:50:46.748Z,57.88
2022-11-29T02:53:52.492Z,60.22
2022-11-29T02:56:37.141Z,61.05
2022-11-29T02:59:42.998Z,57.38
2022-11-29T03:03:00.146Z,57.90
2022-11-29T03:06:35.960Z,58.95
2022-11-29T03:09:36.840Z,53.20
2022-11-29T03:12:30.901Z,51.30
2022-11-29T03:15:22.698Z,54.35
2022-11-29T03:18:51.512Z,52.45
2022-11-29T03:21:34.541Z,51.95
2022-11-29T03:24:11.991Z,52.85
2022-11-29T03:26:49.931Z,48.95
2022-11-29T03:29:47.823Z,51.92
2022-11-29T03:32:51.003Z,50.35
2022-11-29T03:35:59.036Z,46.17
2022-11-29T03:38:43.828Z,54.70
2022-11-29T03:42:07.710Z,48.75
2022-11-29T03:45:05.975Z,47.83
2022-11-29T03:47:51.583Z,50.75
2022-11-29T03:50:33.348Z,51.47
2022-11-29T03:53:34.119Z,50.33
2022-11-29T03:56:23.104Z,51.10
2022-11-29T03:59:27.007Z,47.78
2022-11-29T04:02:28.738Z,46.13
2022-11-29T04:05:29.789Z,48.60
2022-11-29T04:08:28.044Z,47.90
2022-11-29T04:12:12.927Z,53.35
2022-11-29T04:14:51.209Z,48.17
2022-11-29T04:18:07.236Z,54.53
2022-11-29T04:20:49.301Z,48.28
2022-11-29T04:23:41.164Z,49.53
2022-11-29T04:27:20.509Z,50.13
2022-11-29T04:30:18.313Z,48.65
2022-11-29T04:33:30.925Z,51.22
2022-11-29T04:37:03.707Z,47.80
2022-11-29T04:39:49.171Z,44.58
2022-11-29T04:42:37.249Z,46.83
2022-11-29T04:45:36.464Z,44.38
2022-11-29T04:48:56.496Z,49.58
2022-11-29T04:51:51.711Z,45.00
2022-11-29T04:54:57.238Z,50.65
2022-11-29T04:57:47.582Z,43.40
2022-11-29T05:00:24.930Z,47.35
2022-11-29T05:03:06.507Z,44.60
2022-11-29T05:06:23.825Z,48.05
2022-11-29T05:09:03.861Z,50.25
2022-11-29T05:12:05.535Z,44.45
2022-11-29T05:15:43.435Z,41.92
2022-11-29T05:18:56.603Z,42.08
2022-11-29T05:22:19.867Z,50.28
2022-11-29T05:25:27.812Z,46.08
2022-11-29T05:28:10.693Z,46.00
2022-11-29T05:31:26.888Z,45.72
2022-11-29T05:34:34.748Z,38.47
2022-11-29T05:37:49.023Z,38.53
2022-11-29T05:41:06.818Z,40.78
2022-11-29T05:44:16.928Z,40.60
2022-11-29T05:47:04.754Z,44.67
2022-11-29T05:49:53.717Z,43.83
2022-11-29T05:52:50.125Z,45.55
2022-11-29T05:55:55.083Z,44.38
2022-11-29T05:59:11.920Z,49.63
2022-11-29T06:02:29.488Z,49.33
2022-11-29T06:06:07.065Z,43.22
2022-11-29T06:08:48.843Z,44.83
2022-11-29T06:11:33.832Z,45.88
2022-11-29T06:14:53.469Z,43.28
2022-11-29T06:18:08.693Z,44.63
2022-11-29T06:20:47.621Z,41.20
2022-11-29T06:24:27.392Z,48.38
2022-11-29T06:27:50.516Z,49.65
2022-11-29T06:30:26.709Z,47.50
2022-11-29T06:33:28.907Z,43.60
2022-11-29T06:36:23.413Z,42.53
2022-11-29T06:38:50.990Z,47.30
2022-11-29T06:41:24.465Z,42.20
2022-11-29T06:43:52.196Z,46.78
2022-11-29T06:46:47.364Z,42.00
2022-11-29T06:49:55.852Z,45.50
2022-11-29T06:52:51.737Z,42.40
2022-11-29T06:55:54.926Z,47.03
2022-11-29T06:59:04.391Z,44.60
2022-11-29T07:02:42.724Z,46.28
2022-11-29T07:05:40.780Z,40.75
2022-11-29T07:08:26.572Z,41.03
2022-11-29T07:10:55.599Z,49.92
2022-11-29T07:13:23.558Z,46.10
2022-11-29T07:16:55.826Z,47.95
2022-11-29T07:19:51.559Z,43.33
2022-11-29T07:22:55.136Z,46.03
2022-11-29T07:26:10.711Z,46.63
2022-11-29T07:29:08.019Z,47.83
2022-11-29T07:31:48.293Z,44.95
2022-11-29T07:35:17.466Z,47.30
2022-11-29T07:38:09.972Z,48.35
2022-11-29T07:41:27.791Z,46.10
2022-11-29T07:44:31.187Z,45.92
2022-11-29T07:46:58.411Z,46.38
2022-11-29T07:49:25.672Z,50.47
2022-11-29T07:51:55.118Z,53.42
2022-11-29T07:54:23.072Z,57.85
2022-11-29T07:56:50.306Z,57.58
2022-11-29T07:59:17.557Z,57.90
2022-11-29T08:01:44.801Z,51.33
2022-11-29T08:04:12.057Z,49.30
2022-11-29T08:06:39.490Z,49.88
2022-11-29T08:09:07.744Z,51.47
2022-11-29T08:11:35.055Z,51.40
2022-11-29T08:14:05.032Z,48.85
2022-11-29T08:16:32.928Z,49.33
2022-11-29T08:19:00.677Z,49.83
2022-11-29T08:21:28.191Z,45.38
2022-11-29T08:23:55.436Z,41.30
2022-11-29T08:26:25.610Z,47.80
2022-11-29T08:28:55.708Z,45.50
2022-11-29T08:31:22.922Z,47.38
2022-11-29T08:33:50.162Z,38.90
2022-11-29T08:36:20.158Z,43.50
2022-11-29T08:38:48.258Z,44.92
2022-11-29T08:41:17.765Z,37.38
2022-11-29T08:43:45.196Z,38.65
2022-11-29T08:46:18.248Z,42.30
2022-11-29T08:48:47.538Z,46.53
2022-11-29T08:51:15.320Z,44.40
2022-11-29T08:53:42.723Z,44.20
2022-11-29T08:57:04.448Z,40.85
2022-11-29T08:59:06.210Z,45.70
2022-11-29T09:01:33.520Z,39.45
2022-11-29T09:04:03.001Z,32.38
2022-11-29T09:06:40.615Z,33.35
2022-11-29T09:09:08.315Z,32.03
2022-11-29T09:11:36.636Z,35.67
2022-11-29T09:14:07.733Z,32.00
2022-11-29T09:16:38.321Z,30.20
2022-11-29T09:19:06.641Z,28.15
2022-11-29T09:21:36.719Z,32.00
2022-11-29T09:24:06.655Z,37.10
2022-11-29T09:26:37.850Z,37.72
2022-11-29T09:29:06.755Z,32.97
2022-11-29T09:31:35.133Z,30.67
2022-11-29T09:34:02.512Z,33.65
2022-11-29T09:36:31.515Z,28.75
2022-11-29T09:39:02.726Z,30.13
2022-11-29T09:42:07.798Z,31.52
2022-11-29T09:44:46.724Z,32.00
2022-11-29T09:47:36.056Z,27.80
2022-11-29T09:50:35.688Z,30.77
2022-11-29T09:53:48.996Z,33.42
2022-11-29T09:56:33.177Z,40.15
2022-11-29T09:59:22.716Z,39.15
2022-11-29T10:02:48.107Z,37.35
2022-11-29T10:05:44.111Z,36.47
2022-11-29T10:08:36.896Z,37.03
2022-11-29T10:11:35.136Z,34.05
2022-11-29T10:14:16.586Z,35.70
2022-11-29T10:17:03.952Z,31.45
2022-11-29T10:19:47.547Z,31.95
2022-11-29T10:22:54.471Z,34.10
2022-11-29T10:25:51.509Z,33.20
2022-11-29T10:28:32.441Z,33.50
2022-11-29T10:31:25.251Z,36.10
2022-11-29T10:33:54.944Z,36.47
2022-11-29T10:36:47.589Z,34.03
2022-11-29T10:39:44.566Z,37.08
2022-11-29T10:42:40.851Z,28.65
2022-11-29T10:45:38.822Z,28.98
2022-11-29T10:48:19.951Z,31.63
2022-11-29T10:50:51.235Z,31.40
2022-11-29T10:53:30.606Z,37.55
2022-11-29T10:56:07.645Z,33.92
2022-11-29T10:58:35.803Z,32.30
2022-11-29T11:01:07.070Z,39.03
2022-11-29T11:04:07.436Z,38.58
2022-11-29T11:06:57.629Z,32.00
2022-11-29T11:09:48.852Z,35.22
2022-11-29T11:12:16.075Z,31.98
2022-11-29T11:14:45.229Z,43.00
2022-11-29T11:17:33.870Z,42.42
2022-11-29T11:20:08.682Z,27.50
2022-11-29T11:22:39.837Z,29.67
2022-11-29T11:25:31.428Z,30.65
2022-11-29T11:28:25.098Z,30.02
2022-11-29T11:31:08.404Z,27.20
2022-11-29T11:33:44.988Z,26.38
2022-11-29T11:36:24.523Z,30.85
2022-11-29T11:39:17.765Z,28.20
2022-11-29T11:42:05.467Z,28.70
2022-11-29T11:44:52.472Z,24.83
2022-11-29T11:47:26.151Z,29.90
2022-11-29T11:50:06.674Z,26.27
2022-11-29T11:52:53.832Z,27.05
2022-11-29T11:55:43.513Z,29.40
2022-11-29T11:58:13.701Z,28.77
2022-11-29T12:01:05.690Z,31.15
2022-11-29T12:04:17.992Z,25.90
2022-11-29T12:07:10.031Z,28.80
2022-11-29T12:09:55.771Z,23.25
2022-11-29T12:12:37.095Z,22.55
2022-11-29T12:15:38.115Z,24.42
2022-11-29T12:18:42.477Z,26.10
2022-11-29T12:21:23.728Z,25.20
2022-11-29T12:24:34.526Z,22.85
2022-11-29T12:27:05.626Z,26.75
2022-11-29T12:29:35.119Z,25.87
2022-11-29T12:32:33.808Z,25.40
2022-11-29T12:35:52.965Z,26.13
2022-11-29T12:38:49.948Z,24.60
2022-11-29T12:41:47.257Z,23.30
2022-11-29T12:44:55.909Z,23.13
2022-11-29T12:47:55.624Z,23.65
2022-11-29T12:50:58.708Z,23.45
2022-11-29T12:53:51.883Z,22.90
2022-11-29T12:56:36.948Z,22.95
2022-11-29T13:00:03.675Z,28.75
2022-11-29T13:03:21.632Z,21.53
2022-11-29T13:05:57.488Z,22.40
2022-11-29T13:08:55.965Z,26.80
2022-11-29T13:11:32.137Z,22.20
2022-11-29T13:14:43.186Z,20.35
2022-11-29T13:17:41.211Z,20.80
2022-11-29T13:20:36.092Z,20.95
2022-11-29T13:24:07.234Z,21.65
2022-11-29T13:26:27.828Z,25.60
2022-11-29T13:28:56.233Z,23.67
2022-11-29T13:31:25.569Z,23.88
2022-11-29T13:34:13.293Z,21.58
2022-11-29T13:37:20.545Z,28.02
2022-11-29T13:40:38.101Z,25.65
2022-11-29T13:43:35.360Z,27.75
2022-11-29T13:46:36.447Z,29.15
2022-11-29T13:49:03.818Z,29.42
2022-11-29T13:51:41.099Z,27.90
2022-11-29T13:54:33.596Z,28.88
2022-11-29T13:57:09.685Z,30.42
2022-11-29T13:59:44.293Z,27.80
2022-11-29T14:02:31.168Z,29.85
2022-11-29T14:04:58.946Z,28.67
2022-11-29T14:07:26.213Z,29.85
2022-11-29T14:10:07.083Z,29.88
2022-11-29T14:12:50.731Z,28.20
2022-11-29T14:15:33.560Z,26.75
2022-11-29T14:18:08.216Z,24.95
2022-11-29T14:20:45.103Z,25.48
2022-11-29T14:23:34.772Z,24.38
2022-11-29T14:26:01.798Z,27.95
2022-11-29T14:28:39.745Z,27.33
2022-11-29T14:31:10.702Z,25.40
2022-11-29T14:33:47.039Z,23.75
2022-11-29T14:36:54.693Z,27.67
2022-11-29T14:39:46.954Z,26.77
2022-11-29T14:42:20.920Z,27.90
2022-11-29T14:45:00.657Z,28.10
2022-11-29T14:47:38.855Z,22.02
2022-11-29T14:50:10.361Z,24.15
2022-11-29T14:52:51.465Z,26.13
2022-11-29T14:55:21.242Z,25.52
2022-11-29T14:57:48.377Z,29.00
2022-11-29T15:00:32.402Z,25.55
2022-11-29T15:03:37.795Z,25.70
2022-11-29T15:06:14.130Z,22.23
2022-11-29T15:09:03.957Z,26.40
2022-11-29T15:11:48.021Z,27.65
2022-11-29T15:15:19.665Z,28.70
2022-11-29T15:18:24.664Z,31.27
2022-11-29T15:21:43.568Z,26.23
2022-11-29T15:24:15.833Z,26.02
2022-11-29T15:27:12.841Z,24.63
2022-11-29T15:29:39.977Z,26.40
2022-11-29T15:32:12.831Z,29.77
2022-11-29T15:34:50.367Z,25.42
2022-11-29T15:37:36.475Z,29.55
2022-11-29T15:43:19.306Z,31.67
2022-11-29T15:45:51.411Z,30.95
2022-11-29T15:48:29.105Z,30.65
2022-11-29T15:51:20.797Z,30.50
2022-11-29T15:54:43.444Z,31.27
2022-11-29T15:57:30.121Z,29.60
2022-11-29T16:00:02.241Z,31.23
2022-11-29T16:02:38.091Z,30.77
2022-11-29T16:05:30.914Z,26.83
2022-11-29T16:08:05.298Z,29.40
2022-11-29T16:10:43.612Z,28.15
2022-11-29T16:13:35.789Z,29.13
2022-11-29T16:16:15.500Z,30.08
2022-11-29T16:18:46.626Z,35.70
2022-11-29T16:21:32.114Z,31.10
2022-11-29T16:24:18.488Z,34.85
2022-11-29T16:26:47.212Z,32.08
2022-11-29T16:29:34.851Z,32.08
2022-11-29T16:32:28.601Z,38.05
2022-11-29T16:35:06.029Z,31.42
2022-11-29T16:37:44.060Z,31.48
2022-11-29T16:40:26.323Z,33.85
2022-11-29T16:43:24.073Z,35.40
2022-11-29T16:46:20.171Z,36.83
2022-11-29T16:48:57.274Z,36.30
2022-11-29T16:51:38.648Z,38.90
2022-11-29T16:54:31.689Z,39.13
2022-11-29T16:56:58.920Z,42.83
2022-11-29T16:59:28.401Z,41.15
2022-11-29T17:01:56.922Z,41.90
2022-11-29T17:04:25.651Z,42.00
2022-11-29T17:06:57.423Z,42.97
2022-11-29T17:09:32.450Z,41.53
2022-11-29T17:12:01.480Z,41.40
2022-11-29T17:14:29.592Z,39.40
2022-11-29T17:16:57.575Z,42.35
2022-11-29T17:19:24.940Z,39.60
2022-11-29T17:21:52.978Z,38.17
2022-11-29T17:24:22.865Z,39.25
2022-11-29T17:26:51.188Z,40.40
2022-11-29T17:29:19.001Z,37.97
2022-11-29T17:31:46.984Z,36.53
2022-11-29T17:34:14.301Z,40.35
2022-11-29T17:36:41.892Z,37.80
2022-11-29T17:39:09.353Z,34.65
2022-11-29T17:41:36.889Z,38.92
2022-11-29T17:44:04.776Z,37.00
2022-11-29T17:46:36.330Z,38.20
2022-11-29T17:49:08.476Z,40.10
2022-11-29T17:51:54.224Z,45.92
2022-11-29T17:54:22.973Z,41.10
2022-11-29T17:56:51.456Z,41.40
2022-11-29T17:59:18.954Z,85.55
2022-11-29T18:01:49.328Z,95.45
2022-11-29T18:04:16.822Z,126.40
2022-11-29T18:06:49.395Z,60.65
2022-11-29T18:09:17.830Z,47.47
2022-11-29T18:11:49.346Z,50.90
2022-11-29T18:14:28.220Z,45.85
2022-11-29T18:16:55.804Z,49.10
2022-11-29T18:19:23.398Z,50.47
2022-11-29T18:21:50.947Z,39.10
2022-11-29T18:24:18.843Z,43.75
2022-11-29T18:26:46.872Z,42.85
2022-11-29T18:29:14.350Z,47.40
2022-11-29T18:31:45.891Z,42.85
2022-11-29T18:34:14.775Z,50.10
2022-11-29T18:36:48.620Z,47.70
2022-11-29T18:39:19.740Z,55.22
2022-11-29T18:41:49.988Z,61.75
2022-11-29T18:44:21.523Z,55.35
2022-11-29T18:46:48.864Z,50.50
2022-11-29T18:49:18.203Z,52.20
2022-11-29T18:51:46.829Z,65.32
2022-11-29T18:54:17.152Z,61.38
2022-11-29T18:56:45.998Z,53.25
2022-11-29T18:59:17.356Z,53.05
2022-11-29T19:01:47.905Z,60.05
2022-11-29T19:04:21.072Z,77.18
2022-11-29T19:06:49.315Z,73.03
2022-11-29T19:09:21.286Z,54.53
2022-11-29T19:11:49.719Z,56.22
2022-11-29T19:14:17.820Z,49.33
2022-11-29T19:16:48.371Z,48.30
2022-11-29T19:19:15.620Z,52.60
2022-11-29T19:21:42.805Z,51.00
2022-11-29T19:24:15.587Z,47.83
2022-11-29T19:26:46.280Z,54.35
2022-11-29T19:29:15.123Z,50.88
2022-11-29T19:31:43.192Z,57.92
2022-11-29T19:34:10.907Z,54.67
2022-11-29T19:36:43.853Z,51.95
2022-11-29T19:39:17.463Z,59.45
2022-11-29T19:41:47.787Z,51.70
2022-11-29T19:44:15.424Z,52.08
2022-11-29T19:46:48.396Z,50.53
2022-11-29T19:49:16.338Z,46.58
2022-11-29T19:51:43.585Z,47.75
2022-11-29T19:54:12.377Z,53.08
2022-11-29T19:56:39.852Z,53.95
2022-11-29T19:59:08.846Z,53.20
2022-11-29T20:01:41.314Z,50.67
2022-11-29T20:04:11.154Z,56.72
2022-11-29T20:06:40.269Z,63.03
2022-11-29T20:09:07.805Z,65.80
2022-11-29T20:11:35.597Z,62.42
2022-11-29T20:14:06.090Z,70.15
2022-11-29T20:16:33.841Z,63.50
2022-11-29T20:19:02.180Z,59.25
2022-11-29T20:21:32.833Z,58.95
2022-11-29T20:24:07.593Z,57.85
2022-11-29T20:26:38.429Z,60.40
2022-11-29T20:29:08.294Z,55.38
2022-11-29T20:31:43.066Z,65.45
2022-11-29T20:34:14.824Z,57.35
2022-11-29T20:37:02.089Z,56.97
2022-11-29T20:40:03.909Z,54.80
2022-11-29T20:43:02.804Z,58.97
2022-11-29T20:45:30.412Z,55.10
2022-11-29T20:48:17.698Z,63.38
2022-11-29T20:50:59.780Z,59.63
2022-11-29T20:53:40.564Z,57.00
2022-11-29T20:56:10.748Z,62.45
2022-11-29T20:58:38.910Z,57.15
2022-11-29T21:01:07.410Z,69.65
2022-11-29T21:03:35.062Z,60.50
2022-11-29T21:06:05.528Z,59.55
2022-11-29T21:08:33.945Z,62.60
2022-11-29T21:11:10.133Z,65.70
2022-11-29T21:13:38.521Z,63.75
2022-11-29T21:16:06.806Z,61.85
2022-11-29T21:18:34.698Z,65.32
2022-11-29T21:21:26.976Z,64.82
2022-11-29T21:24:28.679Z,61.50
2022-11-29T21:26:56.175Z,60.30
2022-11-29T21:29:24.308Z,63.65
2022-11-29T21:31:54.164Z,69.85
2022-11-29T21:34:22.320Z,63.83
2022-11-29T21:36:58.994Z,65.38
2022-11-29T21:39:33.383Z,67.28
2022-11-29T21:42:00.808Z,64.15
2022-11-29T21:44:27.968Z,67.47
2022-11-29T21:46:55.443Z,63.58
2022-11-29T21:49:22.694Z,66.93
2022-11-29T21:51:49.981Z,70.32
2022-11-29T21:54:17.271Z,86.47
2022-11-29T21:56:44.433Z,106.20
2022-11-29T21:59:11.596Z,99.43
2022-11-29T22:01:38.976Z,89.57
2022-11-29T22:04:06.236Z,83.75
2022-11-29T22:06:33.541Z,77.63
2022-11-29T22:09:01.061Z,78.75
2022-11-29T22:11:31.353Z,76.57
2022-11-29T22:14:19.855Z,78.38
2022-11-29T22:16:56.037Z,80.63
2022-11-29T22:19:28.560Z,84.03
2022-11-29T22:22:00.381Z,83.90
2022-11-29T22:24:32.057Z,84.38
2022-11-29T22:26:59.669Z,83.57
2022-11-29T22:29:27.268Z,80.20
2022-11-29T22:31:56.593Z,85.22
2022-11-29T22:34:26.636Z,83.38
2022-11-29T22:36:54.616Z,78.50
2022-11-29T22:39:23.924Z,89.03
2022-11-29T22:41:54.591Z,78.65
2022-11-29T22:44:25.865Z,77.15
2022-11-29T22:46:53.227Z,79.50
2022-11-29T22:49:20.727Z,81.13
2022-11-29T22:51:48.212Z,82.88
2022-11-29T22:54:16.334Z,79.72
2022-11-29T22:56:44.978Z,82.35
2022-11-29T22:59:12.919Z,86.20
2022-11-29T23:01:41.942Z,81.25
2022-11-29T23:04:12.057Z,79.38
2022-11-29T23:06:45.588Z,87.30
2022-11-29T23:09:22.196Z,87.20
2022-11-29T23:11:53.890Z,78.40
2022-11-29T23:14:22.708Z,81.85
2022-11-29T23:16:50.293Z,82.03
2022-11-29T23:19:17.851Z,87.22
2022-11-29T23:21:46.155Z,84.68
2022-11-29T23:24:15.307Z,82.22
2022-11-29T23:26:46.758Z,90.88
2022-11-29T23:29:18.425Z,96.38
2022-11-29T23:31:47.027Z,89.00
2022-11-29T23:34:14.720Z,83.20
2022-11-29T23:36:41.958Z,89.10
2022-11-29T23:39:09.304Z,91.38
2022-11-29T23:41:37.019Z,90.20
2022-11-29T23:44:06.204Z,84.50
2022-11-29T23:46:35.165Z,81.20
2022-11-29T23:49:02.616Z,82.60
2022-11-29T23:51:29.907Z,82.35
2022-11-29T23:53:57.051Z,86.78
2022-11-29T23:56:24.185Z,86.88
2022-11-29T23:58:51.417Z,79.70
